Time;durP1;ratioP1;P1;durP2;ratioP2;P2;SDS_P1;SDS_P2;PMS_P1;PMS_P2;Temp;Humidity;BMP_temperature;BMP_pressure;BME280_temperature;BME280_humidity;BME280_pressure;Samples;Min_cycle;Max_cycle;Signal;HPM_P1;HPM_P2
2023/03/05 00:01:43;;;;;;;;;10.25;9.75;;;;;7.94;47.81;98401.03;6164996;28;98216;-54
2023/03/05 00:04:46;;;;;;;;;9.40;8.40;;;;;7.96;48.01;98400.84;6165672;28;96640;-54
2023/03/05 00:07:50;;;;;;;;;12.00;11.00;;;;;7.94;47.98;98397.53;6147775;28;96497;-54
2023/03/05 00:10:59;;;;;;;;;11.50;10.50;;;;;7.86;48.06;98400.50;6145347;28;97163;-55
2023/03/05 00:14:04;;;;;;;;;12.00;11.00;;;;;7.86;48.07;98398.63;6123272;28;96785;-53
2023/03/05 00:17:08;;;;;;;;;10.00;10.00;;;;;7.84;48.03;98401.53;6162276;28;96340;-55
2023/03/05 00:20:12;;;;;;;;;7.20;7.20;;;;;7.85;47.89;98399.66;6146879;28;96455;-55
2023/03/05 00:23:16;;;;;;;;;13.40;12.40;;;;;7.84;47.84;98392.66;6144165;28;98365;-54
2023/03/05 00:26:22;;;;;;;;;15.00;14.00;;;;;7.67;47.99;98376.22;6144826;28;96506;-54
2023/03/05 00:29:27;;;;;;;;;11.00;10.60;;;;;7.86;47.83;98390.59;6127370;28;97268;-54
2023/03/05 00:32:35;;;;;;;;;10.40;10.00;;;;;7.81;48.00;98393.91;6147419;28;96285;-56
2023/03/05 00:35:43;;;;;;;;;11.00;11.00;;;;;7.79;47.77;98379.88;6168697;28;96436;-54
2023/03/05 00:38:47;;;;;;;;;12.00;11.00;;;;;7.83;47.39;98385.63;6136301;28;96703;-54
2023/03/05 00:41:53;;;;;;;;;11.50;11.25;;;;;7.82;47.39;98379.44;6156467;28;97565;-53
2023/03/05 00:44:56;;;;;;;;;11.00;10.00;;;;;7.83;47.12;98374.91;6168856;28;96717;-54
2023/03/05 00:48:01;;;;;;;;;11.60;11.00;;;;;7.84;47.33;98374.69;6168562;28;96644;-54
2023/03/05 00:51:04;;;;;;;;;15.00;15.00;;;;;7.82;47.00;98373.25;6168776;28;96615;-54
2023/03/05 00:54:08;;;;;;;;;10.60;10.20;;;;;7.80;46.88;98357.38;6150994;28;96277;-54
2023/03/05 00:57:13;;;;;;;;;10.80;10.80;;;;;7.82;46.72;98367.88;6150121;28;96610;-54
2023/03/05 01:00:17;;;;;;;;;9.40;9.40;;;;;7.83;46.64;98366.84;6168542;28;97031;-54
2023/03/05 01:03:20;;;;;;;;;14.20;11.60;;;;;7.84;46.66;98369.31;6167993;28;96277;-54
2023/03/05 01:06:23;;;;;;;;;8.00;7.20;;;;;7.79;46.76;98366.47;6167511;28;96256;-54
2023/03/05 01:09:27;;;;;;;;;9.00;8.00;;;;;7.74;46.89;98360.91;6141763;28;96254;-53
2023/03/05 01:12:32;;;;;;;;;13.20;13.20;;;;;7.73;47.13;98361.94;6148304;28;96825;-53
2023/03/05 01:15:35;;;;;;;;;12.20;11.20;;;;;7.60;47.83;98345.13;6150932;28;96226;-54
2023/03/05 01:18:39;;;;;;;;;13.20;12.20;;;;;7.66;48.13;98355.00;6168073;28;96304;-54
2023/03/05 01:21:42;;;;;;;;;11.00;11.00;;;;;7.64;46.43;98362.44;6133218;28;98384;-54
2023/03/05 01:24:46;;;;;;;;;11.00;11.00;;;;;7.59;44.65;98360.41;6168257;28;96209;-54
2023/03/05 01:27:51;;;;;;;;;11.00;11.00;;;;;7.54;43.22;98364.75;6150378;28;96488;-54
2023/03/05 01:30:55;;;;;;;;;12.00;11.00;;;;;7.41;43.02;98338.84;6150166;28;96184;-53
2023/03/05 01:33:59;;;;;;;;;13.25;12.25;;;;;7.52;41.61;98356.94;6167260;28;96546;-53
2023/03/05 01:37:02;;;;;;;;;10.00;8.00;;;;;7.62;41.24;98362.66;6167562;28;96225;-53
2023/03/05 01:40:07;;;;;;;;;7.00;6.00;;;;;7.66;40.90;98363.03;6149032;28;96422;-53
2023/03/05 01:43:23;;;;;;;;;6.60;6.40;;;;;7.61;39.49;98355.66;6164283;28;96265;-54
2023/03/05 01:46:32;;;;;;;;;8.00;7.40;;;;;7.64;39.63;98359.75;6125966;28;96308;-55
2023/03/05 01:49:38;;;;;;;;;8.00;7.60;;;;;7.58;39.63;98361.44;6161760;28;96616;-53
2023/03/05 01:52:46;;;;;;;;;8.20;7.60;;;;;7.59;39.93;98360.41;6150480;28;96175;-54
2023/03/05 01:55:49;;;;;;;;;10.60;9.00;;;;;7.60;40.23;98362.03;6149812;28;96872;-54
2023/03/05 01:59:02;;;;;;;;;11.40;10.00;;;;;7.55;40.39;98356.50;6148163;28;96239;-54
2023/03/05 02:02:06;;;;;;;;;9.00;7.00;;;;;7.55;41.04;98358.34;6150131;28;96624;-60
2023/03/05 02:05:13;;;;;;;;;10.00;8.00;;;;;7.52;41.01;98353.44;6164836;28;96201;-60
2023/03/05 02:08:19;;;;;;;;;9.40;9.00;;;;;7.50;41.99;98352.81;6164391;28;96574;-60
2023/03/05 02:11:23;;;;;;;;;7.00;6.60;;;;;7.51;42.17;98365.19;6163443;28;98331;-60
2023/03/05 02:14:28;;;;;;;;;8.67;8.67;;;;;7.51;42.24;98351.78;6164761;28;97130;-60
2023/03/05 02:17:31;;;;;;;;;8.00;7.60;;;;;7.51;42.60;98357.16;6163133;28;96229;-60
2023/03/05 02:20:45;;;;;;;;;8.67;7.67;;;;;7.50;43.12;98359.00;6154967;28;96262;-60
2023/03/05 02:23:49;;;;;;;;;9.00;9.00;;;;;7.48;42.66;98362.94;6139436;28;96412;-60
2023/03/05 02:26:54;;;;;;;;;10.00;9.60;;;;;7.44;42.42;98354.50;6131488;28;96730;-60
2023/03/05 02:29:57;;;;;;;;;6.25;6.25;;;;;7.44;42.26;98346.44;6164065;28;97055;-60
2023/03/05 02:33:01;;;;;;;;;8.00;7.00;;;;;7.41;41.45;98344.22;6163924;28;96587;-60
2023/03/05 02:36:05;;;;;;;;;7.80;7.80;;;;;7.37;40.87;98343.81;6133939;28;98337;-60
2023/03/05 02:39:10;;;;;;;;;7.00;6.40;;;;;7.36;40.03;98352.91;6105827;28;96859;-59
2023/03/05 02:42:14;;;;;;;;;7.50;7.25;;;;;7.34;40.53;98346.91;6157918;28;96855;-60
2023/03/05 02:45:18;;;;;;;;;9.00;7.00;;;;;7.35;40.37;98353.09;6162612;28;96208;-60
2023/03/05 02:48:21;;;;;;;;;6.00;5.00;;;;;7.40;40.39;98342.56;6163078;28;97532;-60
2023/03/05 02:51:24;;;;;;;;;7.40;6.40;;;;;7.38;39.89;98334.72;6163720;28;96285;-60
2023/03/05 02:54:30;;;;;;;;;8.00;6.00;;;;;7.31;39.30;98342.00;6146527;28;96479;-60
2023/03/05 02:57:33;;;;;;;;;5.00;5.00;;;;;7.27;39.13;98337.28;6128297;28;96558;-60
2023/03/05 03:00:37;;;;;;;;;7.00;7.00;;;;;7.27;38.68;98338.09;6164097;28;96431;-59
2023/03/05 03:03:41;;;;;;;;;6.80;5.80;;;;;7.25;38.15;98325.94;6164105;28;96213;-59
2023/03/05 03:06:44;;;;;;;;;5.60;5.00;;;;;7.24;37.93;98327.78;6161815;28;96279;-60
2023/03/05 03:09:49;;;;;;;;;7.00;6.60;;;;;7.19;37.52;98327.59;6145292;28;96914;-60
2023/03/05 03:12:52;;;;;;;;;6.20;6.20;;;;;7.10;37.44;98317.34;6163204;28;97278;-60
2023/03/05 03:16:02;;;;;;;;;7.60;7.60;;;;;7.16;37.64;98317.31;6163994;28;96374;-60
2023/03/05 03:19:05;;;;;;;;;10.00;9.00;;;;;7.16;37.97;98316.50;6162175;28;96507;-60
2023/03/05 03:22:10;;;;;;;;;6.00;5.20;;;;;7.12;38.89;98318.78;6163258;28;96390;-60
2023/03/05 03:25:17;;;;;;;;;6.40;6.40;;;;;7.04;39.38;98316.31;6163232;28;96762;-61
2023/03/05 03:28:20;;;;;;;;;7.80;7.00;;;;;6.97;39.77;98324.41;6160263;28;96698;-60
2023/03/05 03:31:23;;;;;;;;;8.00;8.00;;;;;6.93;40.84;98331.22;6161875;28;96336;-60
2023/03/05 03:34:27;;;;;;;;;11.00;9.60;;;;;6.88;41.66;98324.88;6145368;28;96456;-60
2023/03/05 03:37:31;;;;;;;;;7.00;7.00;;;;;6.86;42.54;98324.25;6160218;28;96316;-60
2023/03/05 03:40:36;;;;;;;;;7.00;7.00;;;;;6.82;43.25;98323.03;6149857;28;97660;-59
2023/03/05 03:43:39;;;;;;;;;11.00;10.40;;;;;6.79;43.92;98316.22;6158180;28;96652;-59
2023/03/05 03:46:44;;;;;;;;;11.60;10.60;;;;;6.72;44.27;98312.75;6158107;28;96128;-59
2023/03/05 03:49:47;;;;;;;;;11.50;10.50;;;;;6.64;45.28;98313.00;6175987;28;96180;-59
2023/03/05 03:52:51;;;;;;;;;11.00;10.40;;;;;6.62;45.78;98300.81;6133634;28;96324;-60
2023/03/05 03:55:59;;;;;;;;;13.00;9.50;;;;;6.58;45.74;98297.75;6152156;28;96238;-60
2023/03/05 03:59:03;;;;;;;;;11.00;10.40;;;;;6.61;45.89;98297.31;6172535;28;96831;-59
2023/03/05 04:02:06;;;;;;;;;9.00;9.00;;;;;6.60;46.09;98295.66;6174919;28;96320;-60
2023/03/05 04:05:10;;;;;;;;;13.00;12.00;;;;;6.61;45.99;98285.78;6138819;28;96198;-60
2023/03/05 04:08:14;;;;;;;;;11.75;11.75;;;;;6.63;45.80;98289.09;6155111;28;96261;-59
2023/03/05 04:11:19;;;;;;;;;9.00;9.00;;;;;6.62;45.37;98290.94;6174887;28;96691;-60
2023/03/05 04:14:22;;;;;;;;;9.80;7.80;;;;;6.63;45.32;98286.41;6169314;28;96479;-60
2023/03/05 04:17:25;;;;;;;;;10.00;9.00;;;;;6.61;45.03;98288.47;6172414;28;96162;-59
2023/03/05 04:20:29;;;;;;;;;12.40;11.00;;;;;6.59;44.83;98279.84;6175053;28;96933;-60
2023/03/05 04:23:32;;;;;;;;;12.00;12.00;;;;;6.51;43.96;98275.50;6173020;28;97541;-60
2023/03/05 04:26:37;;;;;;;;;13.50;11.50;;;;;6.47;43.52;98276.97;6166551;28;97416;-59
2023/03/05 04:29:40;;;;;;;;;9.40;9.40;;;;;6.52;43.81;98275.31;6152913;28;97967;-58
2023/03/05 04:32:44;;;;;;;;;9.00;8.00;;;;;6.55;43.63;98273.25;6131364;28;97690;-59
2023/03/05 04:35:48;;;;;;;;;9.60;9.00;;;;;6.53;43.75;98266.25;6157299;28;96294;-59
2023/03/05 04:38:51;;;;;;;;;8.00;7.00;;;;;6.47;43.83;98266.25;6156374;28;96618;-60
2023/03/05 04:41:56;;;;;;;;;9.60;9.20;;;;;6.46;43.79;98261.94;6172182;28;96224;-60
2023/03/05 04:44:59;;;;;;;;;7.67;7.67;;;;;6.35;44.17;98258.03;6172880;28;96267;-60
2023/03/05 04:48:03;;;;;;;;;12.50;11.50;;;;;6.41;44.40;98257.22;6169363;28;96838;-59
2023/03/05 04:51:06;;;;;;;;;9.40;9.40;;;;;6.39;44.78;98261.97;6173739;28;96480;-60
2023/03/05 04:54:10;;;;;;;;;11.20;10.80;;;;;6.38;44.92;98259.50;6155891;28;96671;-60
2023/03/05 04:57:15;;;;;;;;;8.75;8.75;;;;;6.33;45.34;98264.66;6172935;28;96222;-59
2023/03/05 05:00:19;;;;;;;;;11.75;10.75;;;;;6.35;45.24;98262.59;6172670;28;96191;-60
2023/03/05 05:03:23;;;;;;;;;14.60;13.60;;;;;6.35;45.77;98268.75;6172820;28;96197;-60
2023/03/05 05:06:26;;;;;;;;;9.00;9.00;;;;;6.31;46.01;98264.03;6172291;28;96278;-59
2023/03/05 05:09:30;;;;;;;;;11.00;10.00;;;;;6.30;46.18;98260.56;6158689;28;96312;-60
2023/03/05 05:12:35;;;;;;;;;13.00;12.00;;;;;6.24;46.44;98249.84;6166219;28;96305;-59
2023/03/05 05:15:40;;;;;;;;;14.00;14.00;;;;;6.23;46.57;98246.34;6172376;28;96419;-59
2023/03/05 05:18:44;;;;;;;;;14.00;14.00;;;;;6.24;46.75;98252.53;6172116;28;96629;-60
2023/03/05 05:21:47;;;;;;;;;11.50;11.50;;;;;6.17;46.94;98244.50;6139263;28;96750;-59
2023/03/05 05:24:51;;;;;;;;;12.50;11.50;;;;;6.09;47.08;98236.72;6137829;28;96266;-60
2023/03/05 05:27:56;;;;;;;;;14.80;13.40;;;;;6.05;47.07;98230.13;6164407;28;96350;-60
2023/03/05 05:30:59;;;;;;;;;8.00;7.20;;;;;5.98;47.33;98229.31;6165226;28;96783;-60
2023/03/05 05:34:02;;;;;;;;;10.00;9.00;;;;;5.81;47.71;98206.69;6150634;28;96238;-60
2023/03/05 05:37:05;;;;;;;;;16.00;14.00;;;;;5.97;47.91;98235.69;6149590;28;96686;-59
2023/03/05 05:40:10;;;;;;;;;12.00;12.00;;;;;5.91;48.00;98231.19;6164289;28;96211;-60
2023/03/05 05:43:15;;;;;;;;;16.00;16.00;;;;;5.88;48.22;98224.38;6167578;28;96032;-60
2023/03/05 05:46:20;;;;;;;;;18.25;18.00;;;;;5.89;48.55;98231.41;6173852;28;96425;-59
2023/03/05 05:49:24;;;;;;;;;16.80;15.00;;;;;5.90;48.81;98233.03;6155314;28;96254;-60
2023/03/05 05:52:27;;;;;;;;;13.80;13.80;;;;;5.89;49.24;98230.56;6168601;28;96209;-59
2023/03/05 05:55:30;;;;;;;;;17.00;16.00;;;;;5.90;49.14;98234.91;6172032;28;96745;-59
2023/03/05 05:58:36;;;;;;;;;19.00;18.00;;;;;5.88;49.62;98232.41;6169285;28;96499;-59
2023/03/05 06:01:39;;;;;;;;;20.00;18.00;;;;;5.98;49.57;98246.19;6171237;28;97517;-58
2023/03/05 06:04:42;;;;;;;;;16.00;16.00;;;;;6.05;49.65;98252.38;6172482;28;96570;-59
2023/03/05 06:07:46;;;;;;;;;17.00;16.00;;;;;6.15;49.46;98256.47;6156480;28;96374;-58
2023/03/05 06:10:54;;;;;;;;;19.00;17.60;;;;;6.13;49.41;98259.34;6159332;28;96736;-60
2023/03/05 06:14:01;;;;;;;;;20.00;19.00;;;;;6.13;49.19;98261.19;6174241;28;96398;-60
2023/03/05 06:17:05;;;;;;;;;21.80;20.80;;;;;6.19;49.03;98273.75;6154211;28;96603;-60
2023/03/05 06:20:09;;;;;;;;;17.25;16.00;;;;;6.22;48.95;98266.13;6168156;28;96524;-59
2023/03/05 06:23:12;;;;;;;;;20.00;19.00;;;;;6.25;48.83;98267.56;6162138;28;96917;-60
2023/03/05 06:26:18;;;;;;;;;19.00;18.00;;;;;6.22;49.19;98268.78;6174420;28;96253;-58
2023/03/05 06:29:22;;;;;;;;;21.00;20.00;;;;;6.30;48.97;98275.78;6173972;28;96336;-59
2023/03/05 06:32:26;;;;;;;;;22.40;22.00;;;;;6.29;49.13;98272.28;6173523;28;96622;-60
2023/03/05 06:35:29;;;;;;;;;23.60;21.60;;;;;6.23;49.18;98265.09;6155940;28;96226;-60
2023/03/05 06:38:33;;;;;;;;;18.00;16.25;;;;;6.18;49.57;98264.91;6162543;28;97121;-59
2023/03/05 06:41:37;;;;;;;;;23.00;22.20;;;;;6.13;49.85;98255.84;6169392;28;96355;-59
2023/03/05 06:44:42;;;;;;;;;24.40;23.00;;;;;6.18;50.05;98258.72;6138326;28;98408;-60
2023/03/05 06:47:45;;;;;;;;;22.60;21.00;;;;;6.15;50.25;98246.59;6166532;28;96880;-60
2023/03/05 06:50:48;;;;;;;;;25.00;22.00;;;;;6.11;50.66;98249.91;6172707;28;96314;-60
2023/03/05 06:53:52;;;;;;;;;23.40;22.40;;;;;6.14;50.49;98249.47;6163073;28;97026;-60
2023/03/05 06:56:56;;;;;;;;;23.75;22.75;;;;;6.15;50.70;98248.44;6165991;28;98309;-60
2023/03/05 07:00:00;;;;;;;;;22.00;21.60;;;;;6.09;50.96;98252.78;6162396;28;98461;-60
2023/03/05 07:03:04;;;;;;;;;22.00;20.00;;;;;6.11;51.08;98241.88;6163364;28;96330;-60
2023/03/05 07:06:09;;;;;;;;;25.60;24.60;;;;;6.05;51.27;98249.69;6161519;28;97022;-61
2023/03/05 07:09:18;;;;;;;;;23.25;23.00;;;;;6.03;51.34;98245.56;6162225;28;96631;-60
2023/03/05 07:12:22;;;;;;;;;25.00;23.00;;;;;6.01;51.69;98248.44;6162159;28;98171;-60
2023/03/05 07:15:26;;;;;;;;;22.50;21.00;;;;;5.88;52.31;98244.97;6139064;28;96238;-60
2023/03/05 07:18:30;;;;;;;;;28.00;25.50;;;;;5.93;52.39;98240.63;6150604;28;96421;-60
2023/03/05 07:21:34;;;;;;;;;22.00;20.40;;;;;5.91;52.30;98242.69;6150979;28;96851;-60
2023/03/05 07:24:41;;;;;;;;;26.00;21.60;;;;;5.83;52.34;98242.06;6146336;28;97539;-60
2023/03/05 07:27:44;;;;;;;;;23.00;22.00;;;;;5.97;52.09;98238.38;6149761;28;99015;-60
2023/03/05 07:30:57;;;;;;;;;23.80;22.00;;;;;5.90;52.39;98235.72;6147598;28;96557;-60
2023/03/05 07:34:02;;;;;;;;;25.80;23.40;;;;;5.91;52.64;98232.00;6152613;28;97146;-60
2023/03/05 07:37:06;;;;;;;;;22.80;22.80;;;;;5.96;52.51;98231.41;6151237;28;96470;-60
2023/03/05 07:40:11;;;;;;;;;25.00;23.50;;;;;5.99;52.58;98231.78;6145879;28;96963;-60
2023/03/05 07:43:14;;;;;;;;;23.20;21.80;;;;;6.08;52.22;98233.22;6151902;28;96821;-61
2023/03/05 07:46:22;;;;;;;;;23.60;23.00;;;;;6.14;52.35;98228.06;6133103;28;96531;-60
2023/03/05 07:49:25;;;;;;;;;27.60;23.00;;;;;6.18;52.30;98226.59;6132285;28;100423;-60
2023/03/05 07:52:29;;;;;;;;;27.60;24.60;;;;;6.19;52.18;98220.22;6149250;28;96925;-58
2023/03/05 07:55:32;;;;;;;;;28.40;25.60;;;;;6.29;52.23;98212.56;6154040;28;97158;-60
2023/03/05 07:58:36;;;;;;;;;24.25;22.25;;;;;6.28;52.06;98219.78;6148407;28;96219;-60
2023/03/05 08:01:41;;;;;;;;;26.25;25.50;;;;;6.28;52.01;98203.72;6151170;28;96228;-60
2023/03/05 08:04:44;;;;;;;;;21.80;20.80;;;;;6.37;51.77;98209.66;6115851;28;96684;-60
2023/03/05 08:07:48;;;;;;;;;30.50;28.75;;;;;6.34;51.68;98204.75;6153245;28;96382;-60
2023/03/05 08:10:51;;;;;;;;;23.60;23.60;;;;;6.31;51.91;98207.81;6149424;28;96736;-60
2023/03/05 08:13:55;;;;;;;;;26.00;25.00;;;;;6.41;51.71;98203.66;6148557;28;96239;-60
2023/03/05 08:16:59;;;;;;;;;21.60;21.60;;;;;6.49;51.66;98200.78;6144715;28;96703;-60
2023/03/05 08:20:04;;;;;;;;;23.50;21.50;;;;;6.51;51.85;98195.19;6158632;28;97157;-60
2023/03/05 08:23:07;;;;;;;;;22.40;22.00;;;;;6.59;51.33;98192.28;6156822;28;96564;-60
2023/03/05 08:26:15;;;;;;;;;29.00;27.40;;;;;6.65;51.09;98179.88;6155249;28;96428;-60
2023/03/05 08:29:18;;;;;;;;;29.75;27.25;;;;;6.64;50.87;98188.97;6150852;28;97457;-60
2023/03/05 08:32:23;;;;;;;;;27.60;23.60;;;;;6.73;50.68;98185.81;6148888;28;96879;-60
2023/03/05 08:35:26;;;;;;;;;24.20;22.20;;;;;6.99;50.20;98179.47;6138868;28;96396;-60
2023/03/05 08:38:30;;;;;;;;;21.40;20.60;;;;;7.13;49.45;98189.09;6138815;28;96228;-60
2023/03/05 08:41:33;;;;;;;;;22.00;21.40;;;;;7.22;48.71;98184.28;6145615;28;99129;-59
2023/03/05 08:44:37;;;;;;;;;22.75;20.00;;;;;7.24;48.83;98179.50;6149019;28;96547;-60
2023/03/05 08:47:42;;;;;;;;;26.40;24.60;;;;;7.34;48.58;98177.97;6152588;28;96796;-60
2023/03/05 08:50:45;;;;;;;;;22.00;20.40;;;;;7.50;48.61;98171.25;6155643;28;96506;-61
2023/03/05 08:53:48;;;;;;;;;21.00;20.80;;;;;7.50;47.86;98182.00;6154857;28;96633;-60
2023/03/05 08:56:51;;;;;;;;;15.80;13.80;;;;;7.46;47.55;98178.09;6156974;28;97099;-54
2023/03/05 08:59:55;;;;;;;;;20.40;18.00;;;;;7.61;46.97;98162.50;6153945;28;96304;-54
2023/03/05 09:03:00;;;;;;;;;23.50;21.50;;;;;7.85;46.99;98166.19;6133948;28;96190;-54
2023/03/05 09:06:06;;;;;;;;;18.80;17.40;;;;;8.00;45.93;98150.56;6150483;28;96319;-54
2023/03/05 09:09:09;;;;;;;;;18.00;17.00;;;;;8.32;45.47;98161.16;6156560;28;96113;-54
2023/03/05 09:12:14;;;;;;;;;17.00;16.00;;;;;8.33;44.57;98158.25;6140843;28;96700;-55
2023/03/05 09:15:18;;;;;;;;;17.60;16.60;;;;;8.34;43.17;98156.41;6136862;28;97555;-54
2023/03/05 09:18:23;;;;;;;;;16.20;14.80;;;;;8.49;43.74;98164.88;6138800;28;96881;-53
2023/03/05 09:21:30;;;;;;;;;18.00;17.00;;;;;8.57;43.92;98151.97;6138466;28;96575;-55
2023/03/05 09:24:34;;;;;;;;;24.00;22.00;;;;;8.42;43.46;98154.22;6125998;28;98543;-56
2023/03/05 09:27:38;;;;;;;;;19.80;18.80;;;;;8.32;44.14;98150.41;6138104;28;98715;-54
2023/03/05 09:30:42;;;;;;;;;24.40;22.80;;;;;8.37;44.64;98150.56;6154613;28;96233;-55
2023/03/05 09:33:48;;;;;;;;;22.00;19.60;;;;;8.49;44.84;98143.41;6130301;28;96619;-55
2023/03/05 09:36:51;;;;;;;;;23.20;22.60;;;;;8.77;44.99;98140.94;6134010;28;96689;-56
2023/03/05 09:39:54;;;;;;;;;22.20;20.80;;;;;8.77;44.71;98132.06;6137865;28;97611;-57
2023/03/05 09:43:09;;;;;;;;;24.00;22.00;;;;;8.81;44.50;98141.31;6153872;28;96890;-56
2023/03/05 09:46:28;;;;;;;;;24.40;23.40;;;;;8.88;44.89;98128.59;6136195;28;96441;-56
2023/03/05 09:49:48;;;;;;;;;25.33;24.00;;;;;8.84;44.72;98130.13;6126816;28;96941;-56
2023/03/05 09:52:55;;;;;;;;;29.00;25.80;;;;;8.74;44.70;98124.47;6153235;28;97079;-57
2023/03/05 09:56:03;;;;;;;;;25.20;24.80;;;;;8.59;45.07;98124.88;6132137;28;97197;-56
2023/03/05 09:59:18;;;;;;;;;26.80;24.00;;;;;8.58;45.24;98104.44;6158883;28;98356;-56
2023/03/05 10:02:28;;;;;;;;;25.75;24.25;;;;;8.64;45.53;98112.41;6136291;28;97610;-56
2023/03/05 10:05:48;;;;;;;;;27.25;24.25;;;;;8.73;45.34;98114.75;6155502;28;96753;-57
2023/03/05 10:08:56;;;;;;;;;25.60;24.00;;;;;8.79;45.21;98105.78;6135790;28;96577;-56
2023/03/05 10:12:04;;;;;;;;;26.00;23.00;;;;;8.76;45.62;98104.38;6141186;28;97152;-55
2023/03/05 10:15:13;;;;;;;;;26.60;25.60;;;;;8.87;45.46;98092.84;6156239;28;96351;-56
2023/03/05 10:18:28;;;;;;;;;22.00;21.00;;;;;8.76;45.63;98103.53;6154227;28;96863;-55
2023/03/05 10:21:40;;;;;;;;;26.00;23.40;;;;;8.82;45.60;98094.56;6158338;28;96134;-56
2023/03/05 10:24:54;;;;;;;;;28.20;27.60;;;;;8.89;45.08;98096.13;6154799;28;96479;-56
2023/03/05 10:28:04;;;;;;;;;29.00;26.40;;;;;8.87;45.43;98097.38;6152305;28;96824;-57
2023/03/05 10:31:23;;;;;;;;;26.00;25.00;;;;;8.87;45.11;98098.22;6147781;28;96638;-55
2023/03/05 10:34:43;;;;;;;;;27.00;26.00;;;;;8.71;45.87;98088.09;6164747;28;96376;-55
2023/03/05 10:38:20;;;;;;;;;23.75;22.50;;;;;8.83;45.38;98082.78;6162876;28;97853;-56
2023/03/05 10:41:31;;;;;;;;;24.75;23.00;;;;;8.95;45.04;98078.22;6163511;28;97084;-56
2023/03/05 10:44:39;;;;;;;;;26.00;23.00;;;;;9.06;44.77;98072.06;6152092;28;96402;-56
2023/03/05 10:47:48;;;;;;;;;30.50;25.25;;;;;9.15;44.46;98073.34;6165666;28;96199;-56
2023/03/05 10:50:56;;;;;;;;;26.25;24.50;;;;;8.90;44.57;98089.69;6151361;28;96327;-56
2023/03/05 10:54:04;;;;;;;;;27.40;25.40;;;;;8.81;44.64;98071.41;6166397;28;96393;-55
2023/03/05 10:57:17;;;;;;;;;30.00;28.00;;;;;8.80;44.90;98067.91;6162836;28;97433;-62
2023/03/05 11:00:23;;;;;;;;;26.25;24.00;;;;;8.55;45.21;98064.59;6148090;28;96597;-61
2023/03/05 11:03:26;;;;;;;;;26.60;25.00;;;;;8.45;45.58;98061.63;6123985;28;96459;-62
2023/03/05 11:06:33;;;;;;;;;26.50;25.50;;;;;8.34;45.72;98060.53;6141759;28;97500;-61
2023/03/05 11:09:38;;;;;;;;;28.60;26.00;;;;;8.17;46.87;98065.66;6152633;28;96260;-62
2023/03/05 11:12:45;;;;;;;;;27.80;24.40;;;;;8.09;47.81;98054.44;6153493;28;97556;-60
2023/03/05 11:15:59;;;;;;;;;33.25;29.75;;;;;8.11;48.97;98058.50;6162587;28;96405;-61
2023/03/05 11:19:18;;;;;;;;;28.80;27.80;;;;;8.19;49.23;98052.84;6161975;28;96690;-62
2023/03/05 11:22:23;;;;;;;;;31.60;28.20;;;;;8.10;49.50;98054.22;6151010;28;96820;-62
2023/03/05 11:25:28;;;;;;;;;28.40;26.00;;;;;8.04;50.02;98063.16;6152615;28;96912;-62
2023/03/05 11:28:34;;;;;;;;;23.80;20.80;;;;;7.99;49.42;98040.72;6157197;28;97042;-62
2023/03/05 11:31:38;;;;;;;;;21.40;20.40;;;;;7.96;49.14;98035.81;6160544;28;96275;-62
2023/03/05 11:34:41;;;;;;;;;19.00;18.00;;;;;7.81;49.12;98049.63;6157581;28;96540;-62
2023/03/05 11:38:00;;;;;;;;;18.60;16.20;;;;;7.29;49.82;98041.09;6141101;28;99046;-62
2023/03/05 11:41:05;;;;;;;;;16.60;16.60;;;;;7.43;50.45;98040.97;6151431;28;96393;-62
2023/03/05 11:44:13;;;;;;;;;17.20;17.00;;;;;7.34;50.74;98030.53;6127948;28;97090;-62
2023/03/05 11:47:26;;;;;;;;;19.40;17.40;;;;;7.27;50.96;98032.47;6147506;28;96287;-61
2023/03/05 11:50:31;;;;;;;;;18.50;18.00;;;;;7.18;51.36;98030.28;6150583;28;97349;-62
2023/03/05 11:53:38;;;;;;;;;18.40;16.40;;;;;7.24;52.00;98035.56;6146219;28;99841;-61
2023/03/05 11:56:45;;;;;;;;;19.20;18.20;;;;;7.25;52.11;98034.53;6118478;28;97293;-61
2023/03/05 11:59:50;;;;;;;;;23.00;21.00;;;;;7.04;51.56;98034.94;6112335;28;97705;-61
2023/03/05 12:02:56;;;;;;;;;19.60;18.60;;;;;7.08;49.98;98027.28;6147975;28;97044;-61
2023/03/05 12:06:09;;;;;;;;;19.00;17.00;;;;;7.21;49.60;98027.97;6142931;28;96929;-62
2023/03/05 12:09:17;;;;;;;;;16.00;16.00;;;;;7.18;49.94;98024.94;6149753;28;97100;-61
2023/03/05 12:12:36;;;;;;;;;17.40;17.00;;;;;7.23;48.88;98033.13;6147707;28;97209;-62
2023/03/05 12:15:56;;;;;;;;;15.00;12.20;;;;;7.22;48.54;98031.47;6151364;28;96070;-62
2023/03/05 12:19:34;;;;;;;;;14.00;13.00;;;;;7.27;48.81;98027.09;6148615;28;96692;-62
2023/03/05 12:22:40;;;;;;;;;14.00;13.40;;;;;7.17;49.11;98020.59;6152931;28;96089;-61
2023/03/05 12:25:49;;;;;;;;;16.00;15.00;;;;;7.11;49.48;98018.78;6136495;28;97259;-62
2023/03/05 12:28:56;;;;;;;;;15.00;14.00;;;;;6.96;49.21;98019.97;6152070;28;96237;-61
2023/03/05 12:32:00;;;;;;;;;15.00;14.75;;;;;6.91;48.60;98016.28;6153576;28;96291;-62
2023/03/05 12:35:05;;;;;;;;;13.00;13.00;;;;;6.89;48.51;98005.78;6155779;28;97553;-62
2023/03/05 12:38:30;;;;;;;;;18.40;16.40;;;;;6.89;47.95;98005.78;6155600;28;96893;-62
2023/03/05 12:41:36;;;;;;;;;15.60;15.00;;;;;6.92;48.20;97991.97;6150762;28;98218;-61
2023/03/05 12:44:41;;;;;;;;;18.00;15.00;;;;;7.02;48.26;98002.19;6154088;28;96289;-61
2023/03/05 12:47:45;;;;;;;;;15.20;14.40;;;;;7.23;48.07;98000.97;6147789;28;96957;-61
2023/03/05 12:50:51;;;;;;;;;12.00;12.00;;;;;7.42;48.09;97983.84;6136568;28;98424;-62
2023/03/05 12:53:55;;;;;;;;;12.00;12.00;;;;;7.54;48.19;97989.25;6152756;28;96345;-61
2023/03/05 12:57:00;;;;;;;;;11.60;11.60;;;;;7.62;47.70;97991.66;6145933;28;96244;-62
2023/03/05 13:00:12;;;;;;;;;12.33;10.33;;;;;7.72;47.49;97997.31;6159758;28;96752;-62
2023/03/05 13:03:19;;;;;;;;;16.25;15.75;;;;;7.86;47.61;97979.19;6143012;28;97789;-62
2023/03/05 13:06:28;;;;;;;;;15.60;14.40;;;;;7.80;47.10;97988.94;6156247;28;97372;-62
2023/03/05 13:09:35;;;;;;;;;17.00;15.00;;;;;7.66;47.39;97987.47;6146524;28;96277;-62
2023/03/05 13:12:39;;;;;;;;;18.75;15.75;;;;;7.62;47.93;97994.34;6151433;28;96574;-61
2023/03/05 13:15:47;;;;;;;;;16.00;15.25;;;;;7.53;48.25;97996.47;6147966;28;96271;-61
2023/03/05 13:18:51;;;;;;;;;16.67;16.67;;;;;7.41;48.39;97990.25;6155646;28;96417;-62
2023/03/05 13:21:59;;;;;;;;;19.40;18.40;;;;;7.38;48.72;97991.50;6161095;28;96796;-62
2023/03/05 13:25:20;;;;;;;;;23.00;21.80;;;;;7.28;49.18;97996.53;6139370;28;96599;-62
2023/03/05 13:28:25;;;;;;;;;23.00;19.00;;;;;7.15;49.41;97977.09;6141159;28;98166;-62
2023/03/05 13:31:31;;;;;;;;;21.00;19.60;;;;;7.04;50.13;97992.03;6142106;28;96509;-62
2023/03/05 13:34:36;;;;;;;;;19.40;18.60;;;;;7.08;50.25;97976.38;6147186;28;96385;-61
2023/03/05 13:37:50;;;;;;;;;21.60;18.60;;;;;7.14;50.17;97980.81;6130414;28;96409;-61
2023/03/05 13:41:06;;;;;;;;;18.60;18.00;;;;;7.30;49.99;97985.59;6153478;28;96387;-62
2023/03/05 13:44:21;;;;;;;;;19.00;17.75;;;;;7.30;49.66;97981.06;6154597;28;96829;-62
2023/03/05 13:47:28;;;;;;;;;20.40;20.40;;;;;7.37;49.70;97981.00;6153340;28;96377;-62
2023/03/05 13:50:33;;;;;;;;;19.00;18.00;;;;;7.40;49.48;97970.66;6160828;28;96272;-62
2023/03/05 13:53:36;;;;;;;;;20.80;19.60;;;;;7.40;49.09;97969.81;6121178;28;97918;-62
2023/03/05 13:56:52;;;;;;;;;23.00;20.00;;;;;7.37;49.16;97968.44;6133581;28;99055;-62
2023/03/05 13:59:55;;;;;;;;;17.00;17.00;;;;;7.38;48.67;97967.34;6144358;28;97335;-61
2023/03/05 14:03:08;;;;;;;;;18.50;16.75;;;;;7.60;48.80;97965.06;6148940;28;96573;-62
2023/03/05 14:06:15;;;;;;;;;18.00;17.00;;;;;7.86;47.80;97955.03;6133644;28;99016;-62
2023/03/05 14:09:22;;;;;;;;;18.00;16.60;;;;;8.24;46.89;97963.56;6147057;28;96534;-61
2023/03/05 14:12:30;;;;;;;;;17.60;17.00;;;;;8.70;46.53;97963.69;6146271;28;97885;-62
2023/03/05 14:15:35;;;;;;;;;19.40;16.80;;;;;8.97;45.74;97961.38;6150969;28;96574;-60
2023/03/05 14:18:53;;;;;;;;;19.00;18.50;;;;;8.86;44.41;97951.44;6144265;28;96480;-62
2023/03/05 14:21:56;;;;;;;;;21.00;18.50;;;;;8.84;44.41;97955.41;6149997;28;97435;-61
2023/03/05 14:25:00;;;;;;;;;21.50;19.50;;;;;8.74;44.56;97939.06;6124303;28;98371;-62
2023/03/05 14:28:05;;;;;;;;;20.80;19.00;;;;;8.75;44.71;97943.38;6148773;28;97425;-62
2023/03/05 14:31:15;;;;;;;;;18.75;18.00;;;;;8.60;43.87;97939.25;6151549;28;97135;-63